Time;durP1;ratioP1;P1;durP2;ratioP2;P2;SDS_P1;SDS_P2;PMS_P1;PMS_P2;Temp;Humidity;BMP_temperature;BMP_pressure;BME280_temperature;BME280_humidity;BME280_pressure;Samples;Min_cycle;Max_cycle;Signal;HPM_P1;HPM_P2
2023/07/12 00:00:34;;;;;;;5.80;4.70;;;;;;;25.52;100.00;101328.34;2085524;28;20207;-66
2023/07/12 00:01:35;;;;;;;6.77;4.80;;;;;;;25.16;100.00;101277.56;2086023;28;20614;-66
2023/07/12 00:02:35;;;;;;;10.13;5.17;;;;;;;25.49;100.00;101337.88;2078130;28;20181;-66
2023/07/12 00:03:35;;;;;;;6.37;4.70;;;;;;;25.19;100.00;101287.88;2074685;28;20679;-66
2023/07/12 00:04:36;;;;;;;8.50;4.90;;;;;;;25.42;100.00;101321.41;2081525;28;20654;-65
2023/07/12 00:05:36;;;;;;;7.00;5.00;;;;;;;25.25;100.00;101300.00;2081737;28;20192;-65
2023/07/12 00:06:39;;;;;;;7.07;4.93;;;;;;;25.47;100.00;101325.50;2088082;28;20200;-65
2023/07/12 00:07:39;;;;;;;6.27;5.20;;;;;;;25.40;100.00;101326.84;2084020;28;20663;-65
2023/07/12 00:08:43;;;;;;;6.43;4.97;;;;;;;25.38;100.00;101325.81;2081327;28;20213;-65
2023/07/12 00:09:43;;;;;;;6.93;5.53;;;;;;;24.85;100.00;101241.75;2081704;28;20205;-66
2023/07/12 00:10:44;;;;;;;6.53;4.87;;;;;;;25.39;100.00;101335.84;2081872;28;20185;-65
2023/07/12 00:11:45;;;;;;;6.17;4.73;;;;;;;25.40;100.00;101326.84;2081693;28;20609;-66
2023/07/12 00:12:46;;;;;;;9.13;5.23;;;;;;;25.40;100.00;101320.38;2081909;28;20557;-65
2023/07/12 00:13:48;;;;;;;6.00;4.73;;;;;;;25.40;100.00;101326.84;2082116;28;20749;-66
2023/07/12 00:14:48;;;;;;;7.37;5.30;;;;;;;25.41;100.00;101322.69;2089259;28;20669;-65
2023/07/12 00:15:50;;;;;;;5.73;5.03;;;;;;;24.83;100.00;101240.75;2083359;28;20628;-66
2023/07/12 00:16:50;;;;;;;6.53;5.20;;;;;;;25.39;100.00;101321.66;2086672;28;20238;-66
2023/07/12 00:17:52;;;;;;;6.63;4.93;;;;;;;25.39;100.00;101322.44;2085486;28;20185;-66
2023/07/12 00:18:54;;;;;;;6.20;5.23;;;;;;;25.38;100.00;101326.56;2081430;28;20282;-66
2023/07/12 00:19:54;;;;;;;7.60;5.40;;;;;;;25.36;100.00;101320.63;2078911;28;20280;-66
2023/07/12 00:20:55;;;;;;;7.23;5.63;;;;;;;25.36;100.00;101328.38;2075308;28;20184;-66
2023/07/12 00:21:55;;;;;;;5.83;4.93;;;;;;;25.35;100.00;101330.44;2081179;28;20690;-65
2023/07/12 00:22:57;;;;;;;7.37;5.20;;;;;;;25.37;100.00;101335.59;2073780;28;20647;-65
2023/07/12 00:23:59;;;;;;;5.83;4.83;;;;;;;25.35;100.00;101330.44;2081159;28;20192;-65
2023/07/12 00:24:59;;;;;;;7.03;5.27;;;;;;;25.31;100.00;101335.59;2081773;28;20558;-65
2023/07/12 00:26:00;;;;;;;5.97;5.10;;;;;;;25.31;100.00;101332.78;2081167;28;20223;-65
2023/07/12 00:27:01;;;;;;;6.73;5.37;;;;;;;24.91;100.00;101270.88;2080862;28;20198;-66
2023/07/12 00:28:01;;;;;;;6.07;5.37;;;;;;;25.29;100.00;101343.84;2081057;28;20200;-65
2023/07/12 00:29:04;;;;;;;10.23;5.37;;;;;;;25.09;100.00;101323.47;2088863;28;20298;-66
2023/07/12 00:30:21;;;;;;;6.63;5.13;;;;;;;25.27;100.00;101340.75;2088832;28;20172;-65
2023/07/12 00:31:22;;;;;;;8.47;5.47;;;;;;;25.27;100.00;101343.59;2080995;28;20537;-65
2023/07/12 00:32:22;;;;;;;7.60;5.07;;;;;;;25.27;100.00;101342.81;2082912;28;20184;-65
2023/07/12 00:33:24;;;;;;;8.83;5.03;;;;;;;25.24;100.00;101341.00;2089670;28;20259;-65
2023/07/12 00:34:24;;;;;;;10.80;4.90;;;;;;;25.19;100.00;101339.69;2090131;28;20176;-65
2023/07/12 00:35:26;;;;;;;6.77;5.23;;;;;;;25.07;100.00;101315.47;2089769;28;20498;-65
2023/07/12 00:36:30;;;;;;;8.27;5.27;;;;;;;25.21;100.00;101337.13;2083350;28;20217;-65
2023/07/12 00:37:30;;;;;;;9.40;5.70;;;;;;;24.72;100.00;101278.34;2087225;28;20200;-66
2023/07/12 00:38:32;;;;;;;7.20;5.17;;;;;;;25.09;100.00;101332.75;2084797;28;20208;-65
2023/07/12 00:39:33;;;;;;;7.23;5.43;;;;;;;25.15;100.00;101347.72;2081243;28;20227;-65
2023/07/12 00:40:55;;;;;;;8.30;5.27;;;;;;;25.16;100.00;101351.31;2081364;28;20169;-65
2023/07/12 00:42:09;;;;;;;13.63;5.27;;;;;;;24.91;100.00;101319.09;2085173;28;20604;-66
2023/07/12 00:43:33;;;;;;;9.57;5.50;;;;;;;25.03;100.00;101334.81;2084689;28;20804;-66
2023/07/12 00:44:47;;;;;;;6.70;4.90;;;;;;;25.06;100.00;101336.63;2081211;28;20290;-65
2023/07/12 00:45:50;;;;;;;8.30;5.70;;;;;;;24.95;100.00;101344.34;2080603;28;20219;-65
2023/07/12 00:46:53;;;;;;;8.10;5.43;;;;;;;24.96;100.00;101334.53;2087661;28;20767;-65
2023/07/12 00:47:54;;;;;;;9.23;5.57;;;;;;;24.96;100.00;101335.31;2083502;28;20223;-66
2023/07/12 00:48:54;;;;;;;6.93;5.27;;;;;;;24.96;100.00;101351.56;2080655;28;20208;-66
2023/07/12 00:49:55;;;;;;;8.17;5.30;;;;;;;24.63;100.00;101292.78;2081159;28;20271;-66
2023/07/12 00:50:55;;;;;;;6.30;5.30;;;;;;;24.97;100.00;101341.78;2081659;28;20177;-65
2023/07/12 00:52:08;;;;;;;7.83;5.60;;;;;;;24.95;100.00;101339.47;2080507;28;20185;-65
2023/07/12 00:53:16;;;;;;;6.50;5.30;;;;;;;24.95;100.00;101335.84;2081170;28;20478;-65
2023/07/12 00:54:20;;;;;;;6.83;5.23;;;;;;;24.97;100.00;101342.53;2080838;28;20620;-65
2023/07/12 00:55:51;;;;;;;7.93;5.20;;;;;;;24.95;100.00;101345.13;2081319;28;20259;-66
2023/07/12 00:56:51;;;;;;;6.60;5.30;;;;;;;24.96;100.00;101345.88;2089248;28;20307;-65
2023/07/12 00:57:52;;;;;;;7.87;5.07;;;;;;;24.02;100.00;101195.56;2080712;28;20251;-65
2023/07/12 00:59:04;;;;;;;6.83;5.03;;;;;;;24.94;100.00;101342.78;2080313;28;20262;-66
2023/07/12 01:00:10;;;;;;;7.07;5.47;;;;;;;24.46;100.00;101268.53;2074650;28;20624;-66
2023/07/12 01:01:12;;;;;;;7.80;5.70;;;;;;;24.95;100.00;101344.34;2081574;28;20157;-65
2023/07/12 01:02:14;;;;;;;9.30;5.60;;;;;;;24.95;100.00;101347.97;2081243;28;20184;-66
2023/07/12 01:03:16;;;;;;;7.83;5.90;;;;;;;24.78;100.00;101330.16;2081699;28;20208;-66
2023/07/12 01:04:22;;;;;;;10.33;5.97;;;;;;;24.78;100.00;101349.22;2081369;28;20726;-65
2023/07/12 01:05:24;;;;;;;8.67;5.70;;;;;;;24.82;100.00;101344.09;2081381;28;20215;-65
2023/07/12 01:06:24;;;;;;;10.83;5.40;;;;;;;24.81;100.00;101351.81;2087153;28;20588;-66
2023/07/12 01:07:28;;;;;;;9.77;5.80;;;;;;;24.80;100.00;101344.59;2084208;28;20212;-65
2023/07/12 01:08:30;;;;;;;9.93;5.80;;;;;;;24.76;100.00;101348.94;2080901;28;20217;-65
2023/07/12 01:09:32;;;;;;;10.87;5.80;;;;;;;24.75;100.00;101351.03;2081272;28;20200;-65
2023/07/12 01:10:32;;;;;;;9.70;5.90;;;;;;;24.21;100.00;101263.84;2081452;28;20181;-66
2023/07/12 01:11:33;;;;;;;11.23;5.70;;;;;;;24.74;100.00;101340.19;2081240;28;20187;-65
2023/07/12 01:12:34;;;;;;;10.77;5.70;;;;;;;24.56;100.00;101332.91;2080766;28;20185;-65
2023/07/12 01:13:35;;;;;;;9.40;6.07;;;;;;;24.70;100.00;101348.97;2072437;28;20237;-65
2023/07/12 01:14:38;;;;;;;11.63;6.57;;;;;;;24.73;100.00;101345.13;2078073;28;20654;-66
2023/07/12 01:15:39;;;;;;;11.90;6.37;;;;;;;24.58;100.00;101330.41;2079553;28;20185;-66
2023/07/12 01:16:42;;;;;;;12.57;6.00;;;;;;;24.72;100.00;101346.38;2086315;28;20192;-65
2023/07/12 01:17:42;;;;;;;11.23;6.00;;;;;;;24.64;100.00;101342.50;2085182;28;20670;-66
2023/07/12 01:18:43;;;;;;;13.07;6.23;;;;;;;24.63;100.00;101349.47;2083124;28;20745;-65
2023/07/12 01:19:43;;;;;;;12.77;6.30;;;;;;;24.63;100.00;101345.84;2084473;28;20198;-66
2023/07/12 01:20:45;;;;;;;8.30;5.80;;;;;;;24.63;100.00;101351.53;2073819;28;20216;-65
2023/07/12 01:21:51;;;;;;;9.43;6.20;;;;;;;24.64;100.00;101353.06;2081057;28;20654;-65
2023/07/12 01:22:53;;;;;;;8.67;5.70;;;;;;;24.67;100.00;101349.22;2081401;28;20173;-65
2023/07/12 01:23:53;;;;;;;12.20;6.47;;;;;;;24.16;100.00;101276.69;2081224;28;20200;-66
2023/07/12 01:24:53;;;;;;;10.63;6.30;;;;;;;24.63;100.00;101349.47;2074318;28;20189;-65
2023/07/12 01:26:12;;;;;;;8.03;6.07;;;;;;;24.57;100.00;101351.47;2078834;28;20251;-65
2023/07/12 01:27:20;;;;;;;9.80;6.17;;;;;;;24.56;100.00;101338.59;2087774;28;20191;-66
2023/07/12 01:28:20;;;;;;;9.77;6.20;;;;;;;24.50;100.00;101340.63;2082224;28;20250;-66
2023/07/12 01:29:20;;;;;;;10.53;6.50;;;;;;;24.49;100.00;101343.97;2084369;28;20758;-65
2023/07/12 01:30:21;;;;;;;9.37;6.40;;;;;;;24.54;100.00;101346.06;2084611;28;20546;-65
2023/07/12 01:31:24;;;;;;;12.00;6.43;;;;;;;23.48;100.00;101191.25;2077917;28;20237;-66
2023/07/12 01:32:26;;;;;;;13.23;6.20;;;;;;;24.43;100.00;101346.81;2087457;28;20195;-65
2023/07/12 01:33:26;;;;;;;12.00;6.37;;;;;;;24.34;100.00;101334.91;2081313;28;20173;-66
2023/07/12 01:34:27;;;;;;;10.27;6.27;;;;;;;24.07;100.00;101296.75;2089649;28;20263;-66
2023/07/12 01:35:27;;;;;;;15.90;6.27;;;;;;;24.26;100.00;101311.22;2081327;28;20219;-66
2023/07/12 01:36:29;;;;;;;12.43;6.53;;;;;;;24.42;100.00;101341.66;2081056;28;20196;-65
2023/07/12 01:37:29;;;;;;;11.37;5.97;;;;;;;24.44;100.00;101339.06;2081038;28;20196;-66
2023/07/12 01:38:30;;;;;;;12.80;6.87;;;;;;;23.83;100.00;101264.44;2084859;28;20200;-66
2023/07/12 01:39:32;;;;;;;9.90;6.53;;;;;;;24.39;100.00;101334.94;2086126;28;20409;-66
2023/07/12 01:40:32;;;;;;;16.80;7.03;;;;;;;24.41;100.00;101343.69;2080763;28;20204;-65
2023/07/12 01:41:33;;;;;;;16.57;6.53;;;;;;;24.40;100.00;101345.00;2080963;28;20251;-66
2023/07/12 01:42:34;;;;;;;15.43;6.50;;;;;;;24.41;100.00;101349.38;2079934;28;20197;-65
2023/07/12 01:43:34;;;;;;;14.20;6.43;;;;;;;24.42;100.00;101342.41;2080769;28;20585;-65
2023/07/12 01:44:35;;;;;;;14.50;5.87;;;;;;;24.42;100.00;101342.41;2080629;28;20295;-65
2023/07/12 01:45:35;;;;;;;14.37;6.47;;;;;;;24.41;100.00;101348.59;2086517;28;20746;-65
2023/07/12 01:46:35;;;;;;;13.93;6.10;;;;;;;24.38;100.00;101343.94;2079803;28;20186;-65
2023/07/12 01:47:36;;;;;;;14.03;6.70;;;;;;;24.38;100.00;101347.56;2079979;28;20223;-65
2023/07/12 01:48:36;;;;;;;13.63;6.10;;;;;;;23.41;100.00;101190.94;2084058;28;20196;-65
2023/07/12 01:49:37;;;;;;;11.83;6.10;;;;;;;24.37;100.00;101343.16;2072165;28;20213;-66
2023/07/12 01:50:37;;;;;;;10.73;5.20;;;;;;;24.39;100.00;101351.16;2072310;28;20178;-65
2023/07/12 01:51:38;;;;;;;9.93;5.73;;;;;;;24.38;100.00;101343.94;2088956;28;20199;-65
2023/07/12 01:52:39;;;;;;;10.40;5.70;;;;;;;24.36;100.00;101340.88;2082332;28;20566;-65
2023/07/12 01:53:40;;;;;;;9.87;6.10;;;;;;;24.38;100.00;101336.25;2086798;28;20196;-65
2023/07/12 01:54:41;;;;;;;9.27;5.90;;;;;;;24.38;100.00;101343.94;2084374;28;20173;-65
2023/07/12 01:55:42;;;;;;;10.90;5.63;;;;;;;23.77;100.00;101260.81;2084072;28;20211;-66
2023/07/12 01:56:43;;;;;;;9.50;5.57;;;;;;;24.37;100.00;101336.75;2086229;28;20234;-65
2023/07/12 01:57:43;;;;;;;7.93;5.30;;;;;;;24.34;100.00;101340.59;2080513;28;20243;-65
2023/07/12 01:58:44;;;;;;;7.03;5.50;;;;;;;24.43;100.00;101340.38;2080504;28;20189;-65
2023/07/12 01:59:44;;;;;;;12.67;6.00;;;;;;;24.46;100.00;101342.94;2081311;28;20684;-65
2023/07/12 02:00:44;;;;;;;7.87;6.00;;;;;;;24.51;100.00;101353.50;2087866;28;20219;-65
2023/07/12 02:01:45;;;;;;;10.70;5.80;;;;;;;24.33;100.00;101324.88;2076443;28;20189;-65
2023/07/12 02:02:45;;;;;;;10.47;5.63;;;;;;;24.47;100.00;101349.41;2077241;28;20196;-65
2023/07/12 02:03:46;;;;;;;9.50;5.97;;;;;;;24.52;100.00;101355.06;2080974;28;20276;-66
2023/07/12 02:04:46;;;;;;;10.03;5.90;;;;;;;24.55;100.00;101359.72;2080829;28;20172;-65
2023/07/12 02:05:47;;;;;;;9.47;5.83;;;;;;;24.56;100.00;101352.00;2080971;28;20171;-65
2023/07/12 02:06:47;;;;;;;13.63;5.93;;;;;;;24.49;100.00;101353.25;2080944;28;20180;-66
2023/07/12 02:07:48;;;;;;;14.10;6.20;;;;;;;24.56;100.00;101355.59;2081217;28;20199;-65
2023/07/12 02:08:49;;;;;;;11.07;6.03;;;;;;;24.18;100.00;101305.28;2080569;28;20216;-65
2023/07/12 02:10:11;;;;;;;11.70;6.03;;;;;;;24.05;100.00;101287.97;2080885;28;20189;-65
2023/07/12 02:11:11;;;;;;;9.93;5.90;;;;;;;24.59;100.00;101368.00;2080226;28;20215;-65
2023/07/12 02:12:12;;;;;;;7.80;5.60;;;;;;;24.60;100.00;101366.69;2080698;28;20197;-65
2023/07/12 02:13:12;;;;;;;11.00;5.53;;;;;;;24.60;100.00;101369.53;2086173;28;20204;-65
2023/07/12 02:14:13;;;;;;;12.97;5.60;;;;;;;24.58;100.00;101364.41;2084127;28;20654;-65
2023/07/12 02:15:14;;;;;;;12.13;5.60;;;;;;;24.41;100.00;101355.03;2080507;28;20250;-65
2023/07/12 02:16:14;;;;;;;7.83;5.70;;;;;;;24.58;100.00;101375.75;2080840;28;20628;-65
2023/07/12 02:17:15;;;;;;;9.20;5.80;;;;;;;24.57;100.00;101379.81;2081193;28;20177;-65
2023/07/12 02:18:16;;;;;;;9.50;5.87;;;;;;;24.54;100.00;101372.34;2080958;28;20252;-65
2023/07/12 02:19:17;;;;;;;11.63;6.43;;;;;;;24.57;100.00;101379.81;2072774;28;20264;-65
2023/07/12 02:20:17;;;;;;;8.77;5.77;;;;;;;24.56;100.00;101375.44;2080228;28;20654;-66
2023/07/12 02:21:18;;;;;;;7.80;5.60;;;;;;;24.55;100.00;101373.88;2080564;28;20276;-65
2023/07/12 02:22:18;;;;;;;7.27;5.10;;;;;;;24.56;100.00;101383.94;2075688;28;20194;-67
2023/07/12 02:23:18;;;;;;;9.33;5.90;;;;;;;24.57;100.00;101376.22;2076577;28;20220;-65
2023/07/12 02:24:19;;;;;;;7.77;5.33;;;;;;;24.58;100.00;101377.75;2081013;28;20189;-65
2023/07/12 02:25:20;;;;;;;8.60;5.17;;;;;;;24.02;100.00;101291.84;2080469;28;20173;-65
2023/07/12 02:26:21;;;;;;;7.07;5.33;;;;;;;24.51;100.00;101364.84;2081117;28;20560;-65
2023/07/12 02:27:21;;;;;;;6.97;5.10;;;;;;;24.02;100.00;101305.22;2081042;28;20173;-65
2023/07/12 02:28:21;;;;;;;7.40;5.40;;;;;;;24.02;100.00;101316.53;2080585;28;20189;-65
2023/07/12 02:29:22;;;;;;;8.73;5.10;;;;;;;24.42;100.00;101376.41;2080643;28;20204;-65
2023/07/12 02:30:25;;;;;;;7.27;5.10;;;;;;;24.45;100.00;101374.63;2085594;28;20235;-65
2023/07/12 02:31:29;;;;;;;5.83;5.13;;;;;;;24.06;100.00;101328.41;2084692;28;20551;-65
2023/07/12 02:32:30;;;;;;;7.57;5.87;;;;;;;24.40;100.00;101375.38;2080502;28;20219;-65
2023/07/12 02:33:30;;;;;;;6.27;5.27;;;;;;;24.38;100.00;101375.91;2080582;28;20219;-65
2023/07/12 02:34:30;;;;;;;8.17;5.43;;;;;;;24.38;100.00;101381.56;2080781;28;20201;-65
2023/07/12 02:35:31;;;;;;;8.53;5.63;;;;;;;24.37;100.00;101382.06;2080650;28;20184;-65
2023/07/12 02:36:31;;;;;;;12.03;5.30;;;;;;;23.90;100.00;101309.28;2081121;28;20181;-65
2023/07/12 02:37:32;;;;;;;8.57;5.60;;;;;;;24.37;100.00;101371.50;2080765;28;20228;-66
2023/07/12 02:38:32;;;;;;;7.27;5.17;;;;;;;24.38;100.00;101389.28;2074483;28;20239;-65
2023/07/12 02:39:33;;;;;;;8.03;5.33;;;;;;;24.37;100.00;101379.25;2081932;28;20665;-65
2023/07/12 02:40:33;;;;;;;7.40;5.10;;;;;;;24.40;100.00;101383.88;2085298;28;20246;-65
2023/07/12 02:41:34;;;;;;;7.43;5.50;;;;;;;24.40;100.00;101386.69;2082869;28;20231;-65
2023/07/12 02:42:35;;;;;;;7.93;5.10;;;;;;;23.96;100.00;101313.66;2087341;28;20254;-65
2023/07/12 02:43:35;;;;;;;6.23;4.93;;;;;;;24.39;100.00;101383.13;2079802;28;20234;-65
2023/07/12 02:44:39;;;;;;;6.97;5.47;;;;;;;24.37;100.00;101385.66;2072244;28;20233;-65
2023/07/12 02:45:39;;;;;;;6.97;5.07;;;;;;;24.36;100.00;101383.38;2080023;28;20192;-65
2023/07/12 02:46:40;;;;;;;5.53;4.97;;;;;;;23.89;100.00;101314.16;2080882;28;20180;-65
2023/07/12 02:47:40;;;;;;;8.17;5.37;;;;;;;24.33;100.00;101385.16;2085566;28;20199;-66
2023/07/12 02:48:41;;;;;;;9.30;5.57;;;;;;;24.33;100.00;101387.19;2084629;28;20232;-65
2023/07/12 02:49:41;;;;;;;6.20;5.13;;;;;;;24.31;100.00;101387.69;2080652;28;20228;-65
2023/07/12 02:50:42;;;;;;;8.90;5.40;;;;;;;23.88;100.00;101325.94;2080818;28;20227;-65
2023/07/12 02:51:43;;;;;;;7.43;4.80;;;;;;;23.89;100.00;101319.06;2080625;28;20550;-66
2023/07/12 02:52:44;;;;;;;7.33;5.10;;;;;;;24.29;100.00;101393.13;2081034;28;20590;-66
2023/07/12 02:53:44;;;;;;;6.07;4.97;;;;;;;24.29;100.00;101395.16;2080370;28;20603;-65
2023/07/12 02:54:44;;;;;;;5.87;4.80;;;;;;;24.27;100.00;101397.75;2080715;28;20693;-65
2023/07/12 02:55:51;;;;;;;6.27;5.30;;;;;;;23.75;100.00;101317.91;2080609;28;20685;-66
2023/07/12 02:56:51;;;;;;;7.67;5.63;;;;;;;23.54;100.00;101285.38;2081051;28;20248;-65
2023/07/12 02:57:52;;;;;;;8.40;5.40;;;;;;;24.24;100.00;101385.38;2084286;28;20250;-65
2023/07/12 02:58:52;;;;;;;5.77;5.03;;;;;;;24.24;100.00;101385.38;2085115;28;20651;-65
2023/07/12 02:59:53;;;;;;;10.70;5.67;;;;;;;24.24;100.00;101374.03;2080139;28;20657;-65
2023/07/12 03:00:57;;;;;;;8.20;5.47;;;;;;;24.24;100.00;101388.19;2080457;28;20240;-65
2023/07/12 03:01:58;;;;;;;7.53;5.33;;;;;;;23.89;100.00;101344.53;2080473;28;20180;-65
2023/07/12 03:02:58;;;;;;;6.87;5.70;;;;;;;24.23;100.00;101386.66;2080656;28;20280;-66
2023/07/12 03:03:59;;;;;;;7.37;5.60;;;;;;;24.23;100.00;101386.66;2080814;28;20193;-65
2023/07/12 03:04:59;;;;;;;6.30;5.70;;;;;;;24.24;100.00;101381.75;2080746;28;20197;-66
2023/07/12 03:06:09;;;;;;;5.97;5.30;;;;;;;24.05;100.00;101352.34;2080594;28;20223;-65
2023/07/12 03:07:09;;;;;;;7.40;5.67;;;;;;;24.26;100.00;101387.69;2080578;28;20192;-65
2023/07/12 03:08:10;;;;;;;7.30;5.13;;;;;;;23.93;100.00;101343.00;2080265;28;20666;-65
2023/07/12 03:09:11;;;;;;;7.33;5.20;;;;;;;23.69;100.00;101302.97;2081541;28;20215;-65
2023/07/12 03:10:11;;;;;;;5.83;4.93;;;;;;;24.25;100.00;101401.06;2088097;28;20179;-65
2023/07/12 03:11:15;;;;;;;7.37;5.10;;;;;;;24.25;100.00;101388.97;2081002;28;20177;-65
2023/07/12 03:12:15;;;;;;;8.67;5.93;;;;;;;24.13;100.00;101388.16;2080815;28;20256;-66
2023/07/12 03:13:16;;;;;;;7.03;5.37;;;;;;;24.19;100.00;101408.78;2080456;28;20197;-66
2023/07/12 03:14:17;;;;;;;7.13;5.37;;;;;;;24.19;100.00;101402.31;2080764;28;20280;-65
2023/07/12 03:15:18;;;;;;;6.83;5.20;;;;;;;23.96;100.00;101370.28;2085158;28;20200;-66
2023/07/12 03:16:18;;;;;;;9.57;5.60;;;;;;;24.17;100.00;101399.25;2084910;28;20205;-65
2023/07/12 03:17:19;;;;;;;5.73;5.23;;;;;;;23.63;100.00;101327.63;2080800;28;20260;-65
2023/07/12 03:18:20;;;;;;;7.30;5.77;;;;;;;23.83;100.00;101352.19;2080608;28;20586;-65
2023/07/12 03:19:22;;;;;;;7.73;5.57;;;;;;;24.21;100.00;101409.03;2080411;28;20207;-65
2023/07/12 03:20:22;;;;;;;8.23;5.40;;;;;;;23.83;100.00;101335.97;2080901;28;20839;-65
2023/07/12 03:21:23;;;;;;;8.23;6.00;;;;;;;24.25;100.00;101403.16;2080988;28;20207;-65
2023/07/12 03:22:23;;;;;;;8.43;5.70;;;;;;;24.26;100.00;101408.28;2080241;28;20189;-65
2023/07/12 03:23:23;;;;;;;6.60;5.50;;;;;;;24.26;100.00;101416.78;2079993;28;20209;-65
2023/07/12 03:24:24;;;;;;;6.43;5.50;;;;;;;24.29;100.00;101423.47;2084777;28;20200;-66
2023/07/12 03:25:24;;;;;;;11.37;5.90;;;;;;;24.31;100.00;101426.59;2085849;28;20185;-65
2023/07/12 03:26:25;;;;;;;8.93;5.83;;;;;;;24.31;100.00;101424.53;2081848;28;20327;-66
2023/07/12 03:27:26;;;;;;;9.47;5.57;;;;;;;24.33;100.00;101426.84;2088251;28;20697;-65
2023/07/12 03:28:26;;;;;;;7.57;5.53;;;;;;;24.34;100.00;101429.19;2080690;28;20180;-66
2023/07/12 03:29:27;;;;;;;9.97;6.10;;;;;;;24.36;100.00;101428.69;2080265;28;20197;-65
2023/07/12 03:30:27;;;;;;;11.23;5.80;;;;;;;24.23;100.00;101397.19;2080535;28;20260;-66
2023/07/12 03:31:28;;;;;;;10.17;5.63;;;;;;;24.22;100.00;101406.97;2081384;28;20193;-65
2023/07/12 03:32:29;;;;;;;16.33;6.10;;;;;;;24.34;100.00;101425.56;2082121;28;20176;-65
2023/07/12 03:33:30;;;;;;;11.20;6.10;;;;;;;23.75;100.00;101326.41;2082148;28;20204;-66
2023/07/12 03:34:31;;;;;;;8.03;5.53;;;;;;;24.40;100.00;101429.97;2082251;28;20169;-65
2023/07/12 03:35:32;;;;;;;11.07;5.90;;;;;;;24.39;100.00;101422.78;2082017;28;20287;-65
2023/07/12 03:36:32;;;;;;;8.67;5.83;;;;;;;24.37;100.00;101421.72;2081015;28;20189;-66
2023/07/12 03:37:32;;;;;;;12.17;6.13;;;;;;;23.84;100.00;101333.94;2081543;28;20657;-66
2023/07/12 03:38:33;;;;;;;10.83;6.00;;;;;;;24.10;100.00;101380.66;2081904;28;20216;-67
2023/07/12 03:39:33;;;;;;;8.40;5.70;;;;;;;24.44;100.00;101422.03;2081892;28;20197;-65
2023/07/12 03:40:35;;;;;;;7.10;5.60;;;;;;;23.94;100.00;101358.72;2082013;28;20191;-66
2023/07/12 03:41:36;;;;;;;7.60;5.90;;;;;;;24.45;100.00;101420.72;2081981;28;20181;-65
2023/07/12 03:42:36;;;;;;;6.80;5.10;;;;;;;23.98;100.00;101350.75;2084090;28;20296;-65
2023/07/12 03:43:37;;;;;;;6.43;5.57;;;;;;;24.44;100.00;101416.34;2088479;28;20255;-65
2023/07/12 03:44:38;;;;;;;7.63;5.40;;;;;;;24.53;100.00;101424.63;2081793;28;20217;-65
2023/07/12 03:45:39;;;;;;;8.57;5.43;;;;;;;24.12;100.00;101363.94;2082310;28;20211;-65
2023/07/12 03:46:39;;;;;;;9.60;5.33;;;;;;;24.39;100.00;101411.44;2082180;28;20230;-66
2023/07/12 03:47:39;;;;;;;7.77;5.90;;;;;;;24.57;100.00;101432.88;2087815;28;20263;-66
2023/07/12 03:48:40;;;;;;;8.40;5.90;;;;;;;24.61;100.00;101434.22;2084492;28;20701;-65
2023/07/12 03:49:40;;;;;;;7.00;5.77;;;;;;;23.96;100.00;101332.72;2078132;28;20669;-66
2023/07/12 03:50:41;;;;;;;8.20;5.80;;;;;;;24.40;100.00;101398.81;2079133;28;20211;-65
2023/07/12 03:51:42;;;;;;;6.33;5.63;;;;;;;24.70;100.00;101424.69;2087249;28;20657;-65
2023/07/12 03:52:42;;;;;;;9.90;5.80;;;;;;;24.73;100.00;101423.69;2081313;28;20545;-66
2023/07/12 03:53:42;;;;;;;6.10;5.50;;;;;;;24.75;100.00;101424.72;2082154;28;20212;-65
2023/07/12 03:54:43;;;;;;;7.73;5.73;;;;;;;24.45;100.00;101378.22;2081288;28;20181;-65
2023/07/12 03:55:45;;;;;;;7.50;5.87;;;;;;;24.80;100.00;101426.81;2080997;28;20188;-65
2023/07/12 03:56:45;;;;;;;7.03;6.23;;;;;;;24.84;100.00;101429.38;2082177;28;20250;-66
2023/07/12 03:57:46;;;;;;;7.73;6.00;;;;;;;24.87;100.00;101428.38;2085777;28;20226;-65
2023/07/12 03:58:46;;;;;;;6.93;5.60;;;;;;;24.54;100.00;101375.19;2086197;28;20205;-66
2023/07/12 03:59:47;;;;;;;7.73;5.67;;;;;;;24.87;100.00;101434.81;2083470;28;20219;-66
2023/07/12 04:00:50;;;;;;;8.40;6.10;;;;;;;24.89;100.00;101434.28;2088530;28;20177;-65
2023/07/12 04:01:50;;;;;;;7.40;6.20;;;;;;;24.95;100.00;101426.56;2080760;28;20169;-66
2023/07/12 04:02:52;;;;;;;6.53;5.63;;;;;;;24.51;100.00;101375.44;2081765;28;20204;-65
2023/07/12 04:03:52;;;;;;;7.20;5.70;;;;;;;24.91;100.00;101426.81;2081843;28;20185;-65
2023/07/12 04:04:52;;;;;;;7.70;5.90;;;;;;;24.99;100.00;101432.78;2081130;28;20268;-66
2023/07/12 04:05:53;;;;;;;7.80;5.40;;;;;;;24.96;100.00;101436.63;2081179;28;20211;-65
2023/07/12 04:06:53;;;;;;;8.37;5.93;;;;;;;25.05;100.00;101431.50;2082061;28;20185;-65
2023/07/12 04:07:56;;;;;;;6.03;5.43;;;;;;;24.90;100.00;101413.16;2079456;28;20195;-65
2023/07/12 04:08:56;;;;;;;8.07;5.90;;;;;;;25.09;100.00;101437.69;2074605;28;20276;-65
2023/07/12 04:09:57;;;;;;;6.73;5.83;;;;;;;25.08;100.00;101436.13;2081139;28;20179;-65
2023/07/12 04:10:58;;;;;;;7.93;5.97;;;;;;;24.95;100.00;101427.34;2090358;28;20666;-65
2023/07/12 04:11:58;;;;;;;6.03;5.37;;;;;;;24.54;100.00;101343.22;2082583;28;20193;-66
2023/07/12 04:12:59;;;;;;;7.07;5.93;;;;;;;25.18;100.00;101436.69;2081748;28;20200;-66
2023/07/12 04:14:01;;;;;;;6.77;5.73;;;;;;;25.20;100.00;101436.91;2081746;28;20694;-66
2023/07/12 04:15:01;;;;;;;7.07;6.00;;;;;;;25.20;100.00;101439.75;2081690;28;20184;-65
2023/07/12 04:16:02;;;;;;;6.73;5.67;;;;;;;24.81;100.00;101368.03;2081563;28;20335;-65
2023/07/12 04:17:02;;;;;;;6.30;5.50;;;;;;;25.28;100.00;101435.91;2081899;28;20184;-66
2023/07/12 04:18:06;;;;;;;6.50;5.80;;;;;;;25.31;100.00;101426.41;2081046;28;20230;-65
2023/07/12 04:19:06;;;;;;;7.27;5.67;;;;;;;25.35;100.00;101426.91;2073553;28;20178;-65
2023/07/12 04:20:07;;;;;;;7.37;5.57;;;;;;;25.38;100.00;101434.38;2081337;28;20192;-66
2023/07/12 04:21:07;;;;;;;8.23;5.87;;;;;;;25.38;100.00;101427.94;2081515;28;20615;-66
2023/07/12 04:22:08;;;;;;;8.07;5.40;;;;;;;25.04;100.00;101378.91;2081512;28;20200;-66
2023/07/12 04:23:08;;;;;;;7.20;5.77;;;;;;;25.36;100.00;101422.78;2081552;28;20303;-65
2023/07/12 04:24:08;;;;;;;6.40;5.23;;;;;;;25.46;100.00;101431.81;2081841;28;20177;-65
2023/07/12 04:25:10;;;;;;;12.90;5.83;;;;;;;25.50;100.00;101429.50;2081509;28;20176;-66
2023/07/12 04:26:10;;;;;;;8.27;5.33;;;;;;;25.51;100.00;101434.66;2081762;28;20181;-65
2023/07/12 04:27:11;;;;;;;9.23;5.53;;;;;;;25.54;100.00;101425.09;2081681;28;20193;-65
2023/07/12 04:28:11;;;;;;;9.17;5.53;;;;;;;25.57;100.00;101426.91;2081994;28;20177;-66
2023/07/12 04:29:11;;;;;;;6.63;5.53;;;;;;;25.62;100.00;101426.13;2081269;28;20295;-65
2023/07/12 04:30:14;;;;;;;8.73;5.53;;;;;;;25.64;100.00;101425.63;2081651;28;20647;-65
2023/07/12 04:31:16;;;;;;;7.47;5.50;;;;;;;25.63;100.00;101424.03;2081868;28;20192;-66
2023/07/12 04:32:16;;;;;;;8.13;5.50;;;;;;;25.47;100.00;101419.16;2081286;28;20213;-66
2023/07/12 04:33:17;;;;;;;6.93;5.47;;;;;;;25.68;100.00;101424.06;2080905;28;20180;-66
2023/07/12 04:34:17;;;;;;;8.77;5.40;;;;;;;25.69;100.00;101424.84;2080239;28;20267;-66
2023/07/12 04:35:21;;;;;;;7.70;5.47;;;;;;;25.55;100.00;101394.66;2077007;28;20187;-66
2023/07/12 04:36:23;;;;;;;8.67;5.50;;;;;;;25.27;100.00;101357.00;2073604;28;20224;-66
2023/07/12 04:37:24;;;;;;;7.10;5.77;;;;;;;25.75;100.00;101429.19;2080770;28;20697;-65
2023/07/12 04:38:25;;;;;;;9.80;6.00;;;;;;;25.80;100.00;101430.50;2087627;28;20693;-66
2023/07/12 04:39:25;;;;;;;6.90;5.57;;;;;;;25.82;100.00;101428.69;2084020;28;20189;-66
2023/07/12 04:40:25;;;;;;;6.63;5.80;;;;;;;25.82;100.00;101431.53;2081747;28;20181;-66
2023/07/12 04:41:26;;;;;;;6.93;6.07;;;;;;;25.88;100.00;101420.94;2083510;28;20253;-65
2023/07/12 04:42:26;;;;;;;7.50;5.80;;;;;;;25.87;100.00;101433.59;2086942;28;20207;-66